X  Close Metar Aviation Weather Data     KSEA Seattle–Tacoma International Airport
Temperature
46°F Temperature
37°F Dewpoint
71% Humidity



Wind
12 MPH
19 KM/H
5 M/S
10 KTS



30°
NNE
Current Conditions

Partly Cloudy Partly Cloudy
Pressure 1023.37 (hPa) - 30.22 (inHg)
Visibility 10 (mile) - 16.1 (km)
Airport
Airport-code KSEA

Location: Seattle–Tacoma International Airport
Distance: 14 (mi)

Metar:
KSEA 221453Z 03010KT 10SM FEW020 FEW200 08/03 A3022 RMK AO2 SLP241 T00780033 56010

Time: 04-22-2024 14:53 PDT